createdAt,value
2022-11-17T00:02:11.312Z,60.91
2022-11-17T00:04:37.582Z,59.95
2022-11-17T00:07:03.867Z,60.23
2022-11-17T00:09:30.141Z,60.16
2022-11-17T00:11:56.390Z,60.74
2022-11-17T00:14:22.628Z,60.32
2022-11-17T00:16:48.859Z,60.95
2022-11-17T00:19:15.096Z,61.42
2022-11-17T00:21:41.323Z,61.02
2022-11-17T00:24:07.568Z,61.69
2022-11-17T00:26:33.897Z,61.08
2022-11-17T00:29:00.130Z,60.99
2022-11-17T00:31:26.372Z,59.87
2022-11-17T00:33:52.605Z,60.29
2022-11-17T00:36:18.839Z,60.54
2022-11-17T00:38:45.093Z,60.50
2022-11-17T00:41:11.335Z,60.41
2022-11-17T00:43:37.929Z,61.02
2022-11-17T00:46:04.231Z,60.90
2022-11-17T00:48:30.458Z,60.38
2022-11-17T00:50:56.693Z,60.50
2022-11-17T00:53:22.936Z,59.94
2022-11-17T00:55:49.210Z,59.35
2022-11-17T00:58:15.491Z,59.05
2022-11-17T01:00:41.735Z,59.39
2022-11-17T01:03:07.989Z,59.44
2022-11-17T01:05:34.231Z,59.54
2022-11-17T01:08:00.470Z,59.37
2022-11-17T01:10:26.717Z,59.76
2022-11-17T01:12:52.969Z,59.83
2022-11-17T01:15:19.212Z,60.32
2022-11-17T01:17:45.443Z,60.95
2022-11-17T01:20:11.677Z,61.13
2022-11-17T01:22:37.914Z,61.32
2022-11-17T01:25:04.161Z,60.44
2022-11-17T01:27:30.406Z,61.10
2022-11-17T01:29:56.652Z,60.77
2022-11-17T01:32:22.901Z,60.46
2022-11-17T01:34:49.138Z,60.73
2022-11-17T01:37:15.372Z,60.65
2022-11-17T01:39:41.602Z,60.61
2022-11-17T01:42:07.831Z,59.95
2022-11-17T01:44:34.069Z,60.48
2022-11-17T01:47:01.189Z,60.32
2022-11-17T01:49:27.607Z,60.25
2022-11-17T01:51:53.861Z,61.07
2022-11-17T01:54:20.097Z,60.83
2022-11-17T01:56:46.332Z,61.34
2022-11-17T01:59:12.573Z,60.74
2022-11-17T02:01:38.872Z,61.04
2022-11-17T02:04:05.126Z,60.99
2022-11-17T02:06:31.356Z,60.98
2022-11-17T02:08:57.602Z,60.92
2022-11-17T02:11:23.848Z,61.21
2022-11-17T02:13:50.107Z,61.14
2022-11-17T02:16:16.442Z,61.99
2022-11-17T02:18:42.680Z,62.28
2022-11-17T02:21:08.932Z,62.63
2022-11-17T02:23:35.375Z,62.83
2022-11-17T02:26:01.761Z,62.90
2022-11-17T02:28:28.012Z,62.41
2022-11-17T02:30:54.257Z,62.70
2022-11-17T02:33:20.497Z,61.86
2022-11-17T02:35:46.736Z,61.12
2022-11-17T02:38:12.976Z,61.81
2022-11-17T02:40:39.209Z,60.92
2022-11-17T02:43:05.451Z,60.35
2022-11-17T02:45:31.675Z,60.20
2022-11-17T02:47:57.899Z,59.80
2022-11-17T02:50:28.281Z,60.05
2022-11-17T02:52:54.919Z,59.64
2022-11-17T02:55:21.158Z,60.46
2022-11-17T02:57:47.393Z,60.85
2022-11-17T03:00:13.618Z,60.69
2022-11-17T03:02:39.852Z,61.05
2022-11-17T03:05:06.092Z,61.63
2022-11-17T03:07:32.436Z,61.67
2022-11-17T03:09:58.730Z,61.74
2022-11-17T03:12:24.966Z,62.78
2022-11-17T03:14:51.199Z,62.45
2022-11-17T03:17:17.423Z,62.84
2022-11-17T03:19:43.668Z,63.10
2022-11-17T03:22:09.898Z,62.44
2022-11-17T03:24:36.130Z,62.52
2022-11-17T03:27:02.371Z,62.41
2022-11-17T03:29:28.616Z,62.27
2022-11-17T03:31:54.847Z,62.07
2022-11-17T03:34:21.076Z,62.46
2022-11-17T03:36:47.323Z,62.52
2022-11-17T03:39:13.552Z,62.22
2022-11-17T03:41:39.796Z,62.36
2022-11-17T03:44:06.038Z,62.35
2022-11-17T03:46:32.273Z,62.05
2022-11-17T03:48:58.607Z,62.26
2022-11-17T03:51:24.841Z,61.72
2022-11-17T03:53:51.074Z,61.57
2022-11-17T03:56:17.316Z,61.80
2022-11-17T03:58:43.547Z,61.54
2022-11-17T04:01:09.777Z,61.60
2022-11-17T04:03:36.416Z,61.71
2022-11-17T04:06:02.881Z,61.57
2022-11-17T04:08:29.113Z,61.72
2022-11-17T04:10:55.367Z,61.81
2022-11-17T04:13:21.628Z,61.56
2022-11-17T04:15:47.852Z,61.55
2022-11-17T04:18:14.086Z,61.72
2022-11-17T04:20:40.332Z,61.74
2022-11-17T04:23:06.580Z,61.04
2022-11-17T04:25:32.823Z,61.69
2022-11-17T04:27:59.202Z,61.20
2022-11-17T04:30:25.433Z,60.97
2022-11-17T04:32:51.669Z,61.10
2022-11-17T04:35:17.902Z,61.07
2022-11-17T04:37:44.142Z,61.58
2022-11-17T04:40:10.374Z,61.76
2022-11-17T04:42:36.597Z,62.21
2022-11-17T04:45:02.833Z,61.76
2022-11-17T04:47:29.069Z,61.49
2022-11-17T04:49:55.299Z,61.65
2022-11-17T04:52:25.424Z,61.44
2022-11-17T04:54:54.644Z,61.52
2022-11-17T04:57:20.875Z,60.73
2022-11-17T04:59:47.121Z,60.98
2022-11-17T05:02:13.378Z,60.74
2022-11-17T05:04:39.629Z,60.62
2022-11-17T05:07:05.911Z,60.46
2022-11-17T05:09:32.170Z,60.70
2022-11-17T05:11:58.410Z,60.95
2022-11-17T05:14:24.653Z,61.13
2022-11-17T05:16:50.903Z,60.97
2022-11-17T05:19:17.131Z,61.14
2022-11-17T05:21:43.363Z,60.61
2022-11-17T05:24:09.594Z,60.61
2022-11-17T05:26:35.826Z,60.97
2022-11-17T05:29:02.060Z,60.82
2022-11-17T05:31:28.305Z,60.19
2022-11-17T05:33:54.538Z,60.08
2022-11-17T05:36:20.776Z,59.42
2022-11-17T05:38:47.032Z,59.77
2022-11-17T05:41:13.272Z,59.83
2022-11-17T05:43:39.508Z,59.78
2022-11-17T05:46:05.750Z,59.26
2022-11-17T05:48:31.984Z,59.38
2022-11-17T05:50:58.215Z,59.91
2022-11-17T05:53:24.453Z,59.52
2022-11-17T05:55:50.686Z,59.71
2022-11-17T05:58:16.949Z,59.21
2022-11-17T06:00:43.191Z,59.21
2022-11-17T06:03:09.439Z,59.60
2022-11-17T06:05:35.687Z,59.08
2022-11-17T06:08:01.920Z,58.32
2022-11-17T06:10:28.197Z,58.49
2022-11-17T06:12:54.427Z,58.49
2022-11-17T06:15:20.692Z,57.67
2022-11-17T06:17:46.978Z,57.35
2022-11-17T06:20:13.226Z,55.41
2022-11-17T06:22:41.866Z,55.22
2022-11-17T06:25:11.702Z,53.35
2022-11-17T06:27:37.974Z,52.47
2022-11-17T06:30:04.362Z,51.97
2022-11-17T06:32:30.607Z,51.60
2022-11-17T06:34:56.851Z,51.93
2022-11-17T06:37:23.607Z,51.85
2022-11-17T06:39:49.852Z,52.25
2022-11-17T06:42:16.091Z,52.52
2022-11-17T06:44:42.935Z,52.01
2022-11-17T06:47:09.162Z,52.14
2022-11-17T06:49:35.389Z,53.22
2022-11-17T06:52:01.632Z,54.56
2022-11-17T06:54:27.907Z,55.15
2022-11-17T06:56:54.233Z,55.58
2022-11-17T06:59:20.580Z,56.28
2022-11-17T07:01:46.915Z,56.64
2022-11-17T07:04:13.251Z,56.93
2022-11-17T07:06:39.595Z,57.54
2022-11-17T07:09:05.937Z,58.59
2022-11-17T07:11:32.274Z,58.13
2022-11-17T07:13:58.700Z,58.40
2022-11-17T07:16:24.984Z,58.26
2022-11-17T07:18:51.265Z,57.88
2022-11-17T07:21:17.551Z,57.85
2022-11-17T07:23:43.827Z,59.04
2022-11-17T07:26:10.101Z,59.73
2022-11-17T07:28:36.702Z,59.91
2022-11-17T07:31:03.361Z,59.74
2022-11-17T07:33:29.649Z,60.34
2022-11-17T07:35:55.973Z,60.38
2022-11-17T07:38:22.254Z,61.09
2022-11-17T07:40:48.583Z,62.32
2022-11-17T07:43:14.860Z,62.38
2022-11-17T07:45:41.145Z,62.55
2022-11-17T07:48:07.469Z,63.53
2022-11-17T07:50:33.806Z,63.85
2022-11-17T07:53:00.084Z,63.97
2022-11-17T07:55:26.393Z,64.35
2022-11-17T07:57:52.672Z,64.18
2022-11-17T08:00:18.946Z,64.38
2022-11-17T08:02:45.230Z,63.90
2022-11-17T08:05:11.555Z,63.92
2022-11-17T08:07:37.892Z,64.16
2022-11-17T08:10:04.190Z,64.09
2022-11-17T08:12:30.515Z,64.56
2022-11-17T08:14:56.849Z,64.43
2022-11-17T08:17:23.188Z,64.60
2022-11-17T08:19:49.521Z,64.87
2022-11-17T08:22:15.806Z,65.24
2022-11-17T08:24:42.340Z,65.17
2022-11-17T08:27:08.715Z,65.57
2022-11-17T08:29:35.005Z,66.50
2022-11-17T08:32:01.273Z,66.01
2022-11-17T08:34:27.553Z,66.63
2022-11-17T08:36:53.874Z,66.15
2022-11-17T08:39:20.203Z,66.24
2022-11-17T08:41:46.481Z,66.46
2022-11-17T08:44:12.750Z,65.51
2022-11-17T08:46:39.074Z,65.28
2022-11-17T08:49:05.349Z,65.46
2022-11-17T08:51:31.675Z,66.14
2022-11-17T08:53:57.958Z,67.18
2022-11-17T08:56:24.238Z,68.03
2022-11-17T08:58:50.528Z,66.94
2022-11-17T09:01:16.835Z,66.18
2022-11-17T09:03:43.104Z,67.30
2022-11-17T09:06:09.342Z,65.58
2022-11-17T09:08:45.606Z,65.76
2022-11-17T09:11:12.806Z,65.89
2022-11-17T09:13:39.073Z,67.64
2022-11-17T09:16:05.335Z,68.42
2022-11-17T09:18:31.605Z,68.47
2022-11-17T09:20:57.867Z,69.20
2022-11-17T09:23:24.132Z,69.41
2022-11-17T09:25:50.396Z,68.97
2022-11-17T09:28:16.652Z,67.56
2022-11-17T09:30:42.918Z,66.97
2022-11-17T09:33:09.188Z,66.84
2022-11-17T09:35:35.445Z,67.19
2022-11-17T09:38:01.734Z,67.79
2022-11-17T09:40:31.873Z,65.80
2022-11-17T09:43:00.987Z,67.23
2022-11-17T09:45:27.251Z,67.90
2022-11-17T09:48:02.406Z,68.27
2022-11-17T09:50:38.852Z,67.09
2022-11-17T09:53:05.104Z,66.51
2022-11-17T09:55:34.469Z,67.46
2022-11-17T09:58:00.914Z,66.58
2022-11-17T10:00:27.164Z,66.27
2022-11-17T10:02:53.408Z,64.95
2022-11-17T10:05:19.652Z,65.46
2022-11-17T10:07:45.892Z,64.91
2022-11-17T10:10:12.153Z,64.94
2022-11-17T10:12:38.424Z,64.13
2022-11-17T10:15:04.682Z,63.77
2022-11-17T10:17:30.933Z,64.71
2022-11-17T10:19:57.205Z,63.69
2022-11-17T10:22:23.452Z,63.41
2022-11-17T10:24:49.814Z,62.38
2022-11-17T10:27:16.087Z,62.86
2022-11-17T10:29:42.326Z,63.41
2022-11-17T10:32:08.593Z,62.64
2022-11-17T10:34:40.539Z,62.49
2022-11-17T10:37:07.619Z,62.57
2022-11-17T10:39:33.861Z,61.53
2022-11-17T10:42:00.101Z,62.15
2022-11-17T10:44:26.367Z,62.07
2022-11-17T10:46:54.505Z,61.47
2022-11-17T10:49:23.886Z,61.17
2022-11-17T10:51:50.159Z,58.91
2022-11-17T10:54:16.443Z,57.56
2022-11-17T10:56:42.712Z,58.51
2022-11-17T10:59:08.964Z,58.27
2022-11-17T11:01:35.417Z,57.88
2022-11-17T11:04:01.760Z,58.47
2022-11-17T11:06:28.019Z,57.96
2022-11-17T11:08:54.495Z,57.11
2022-11-17T11:11:20.795Z,58.62
2022-11-17T11:13:47.032Z,57.53
2022-11-17T11:16:13.272Z,55.46
2022-11-17T11:18:39.538Z,56.16
2022-11-17T11:21:05.779Z,54.54
2022-11-17T11:23:32.042Z,54.07
2022-11-17T11:25:58.280Z,55.67
2022-11-17T11:28:24.543Z,55.77
2022-11-17T11:30:50.813Z,56.79
2022-11-17T11:33:17.074Z,56.80
2022-11-17T11:35:43.339Z,55.66
2022-11-17T11:38:09.681Z,56.83
2022-11-17T11:40:35.939Z,58.22
2022-11-17T11:43:02.184Z,57.18
2022-11-17T11:45:28.427Z,57.76
2022-11-17T11:47:54.674Z,56.30
2022-11-17T11:50:20.927Z,57.63
2022-11-17T11:52:47.195Z,57.13
2022-11-17T11:55:13.455Z,57.59
2022-11-17T11:57:39.728Z,57.34
2022-11-17T12:00:05.995Z,58.19
2022-11-17T12:02:32.272Z,58.14
2022-11-17T12:04:58.564Z,58.57
2022-11-17T12:07:24.913Z,60.32
2022-11-17T12:09:51.219Z,59.62
2022-11-17T12:12:17.475Z,59.88
2022-11-17T12:14:43.744Z,61.13
2022-11-17T12:17:10.021Z,61.88
2022-11-17T12:19:36.284Z,60.92
2022-11-17T12:22:02.524Z,61.43
2022-11-17T12:24:28.783Z,62.66
2022-11-17T12:26:55.031Z,61.43
2022-11-17T12:29:21.308Z,61.02
2022-11-17T12:31:47.565Z,60.88
2022-11-17T12:34:14.190Z,61.76
2022-11-17T12:36:40.639Z,62.20
2022-11-17T12:39:06.894Z,61.85
2022-11-17T12:41:33.163Z,62.19
2022-11-17T12:43:59.404Z,61.61
2022-11-17T12:46:25.648Z,62.00
2022-11-17T12:48:51.962Z,62.75
2022-11-17T12:51:18.330Z,63.56
2022-11-17T12:53:44.590Z,63.49
2022-11-17T12:56:10.851Z,63.37
2022-11-17T12:58:37.122Z,62.50
2022-11-17T13:01:03.444Z,63.46
2022-11-17T13:03:29.749Z,63.48
2022-11-17T13:06:19.754Z,63.28
2022-11-17T13:08:42.236Z,62.04
2022-11-17T13:11:08.471Z,61.85
2022-11-17T13:13:38.775Z,61.41
2022-11-17T13:16:06.508Z,60.49
2022-11-17T13:18:32.753Z,60.93
2022-11-17T13:20:59.036Z,59.50
2022-11-17T13:23:25.307Z,59.12
2022-11-17T13:25:51.557Z,58.08
2022-11-17T13:28:17.811Z,58.57
2022-11-17T13:30:44.105Z,58.53
2022-11-17T13:33:10.367Z,57.20
2022-11-17T13:35:36.634Z,55.49
2022-11-17T13:38:02.884Z,55.33
2022-11-17T13:40:29.152Z,55.65
2022-11-17T13:42:55.413Z,54.58
2022-11-17T13:45:21.652Z,54.95
2022-11-17T13:47:47.900Z,53.82
2022-11-17T13:50:14.164Z,54.25
2022-11-17T13:52:46.521Z,52.99
2022-11-17T13:55:13.256Z,54.52
2022-11-17T13:57:39.508Z,53.45
2022-11-17T14:00:05.768Z,53.83
2022-11-17T14:02:32.031Z,54.75
2022-11-17T14:04:58.325Z,54.17
2022-11-17T14:07:24.605Z,53.80
2022-11-17T14:09:50.893Z,54.12
2022-11-17T14:12:17.169Z,53.11
2022-11-17T14:14:43.439Z,53.96
2022-11-17T14:17:09.712Z,54.17
2022-11-17T14:19:35.960Z,55.57
2022-11-17T14:22:02.231Z,53.79
2022-11-17T14:24:28.474Z,54.42
2022-11-17T14:26:54.733Z,54.41
2022-11-17T14:29:21.000Z,55.29
2022-11-17T14:31:47.269Z,54.91
2022-11-17T14:34:13.779Z,54.39
2022-11-17T14:36:40.425Z,53.95
2022-11-17T14:39:06.691Z,54.37
2022-11-17T14:41:32.956Z,54.89
2022-11-17T14:43:59.219Z,53.88
2022-11-17T14:46:25.490Z,53.52
2022-11-17T14:48:51.735Z,53.99
2022-11-17T14:51:18.001Z,54.48
2022-11-17T14:53:44.351Z,54.58
2022-11-17T14:56:10.591Z,53.36
2022-11-17T14:58:36.848Z,54.84
2022-11-17T15:01:03.115Z,53.49
2022-11-17T15:03:29.401Z,53.20
2022-11-17T15:05:55.766Z,53.43
2022-11-17T15:08:22.007Z,52.71
2022-11-17T15:10:48.388Z,52.78
2022-11-17T15:13:14.637Z,52.99
2022-11-17T15:15:40.893Z,52.91
2022-11-17T15:18:07.164Z,53.18
2022-11-17T15:20:33.436Z,53.43
2022-11-17T15:23:03.353Z,53.64
2022-11-17T15:25:29.909Z,53.77
2022-11-17T15:27:56.169Z,53.18
2022-11-17T15:30:22.428Z,52.92
2022-11-17T15:32:48.684Z,53.26
2022-11-17T15:35:14.948Z,53.34
2022-11-17T15:37:41.214Z,53.28
2022-11-17T15:40:07.457Z,53.64
2022-11-17T15:42:33.748Z,53.34
2022-11-17T15:45:00.011Z,53.28
2022-11-17T15:47:26.288Z,53.58
2022-11-17T15:49:52.561Z,53.59
2022-11-17T15:52:30.156Z,53.15
2022-11-17T15:55:05.044Z,54.04
2022-11-17T15:57:31.285Z,54.12
2022-11-17T15:59:57.554Z,54.19
2022-11-17T16:02:23.808Z,54.91
2022-11-17T16:04:50.060Z,54.13
2022-11-17T16:07:16.347Z,54.07
2022-11-17T16:09:46.141Z,54.03
2022-11-17T16:12:15.414Z,54.71
2022-11-17T16:14:41.709Z,54.66
2022-11-17T16:17:07.984Z,54.11
2022-11-17T16:19:34.256Z,52.97
2022-11-17T16:22:00.529Z,53.24
2022-11-17T16:24:26.800Z,52.39
2022-11-17T16:26:53.063Z,52.33
2022-11-17T16:29:19.324Z,52.47
2022-11-17T16:31:45.591Z,52.03
2022-11-17T16:34:11.863Z,51.91
2022-11-17T16:36:38.102Z,52.76
2022-11-17T16:39:04.372Z,52.93
2022-11-17T16:41:30.630Z,52.29
2022-11-17T16:43:56.927Z,53.23
2022-11-17T16:46:23.231Z,53.59
2022-11-17T16:48:49.491Z,54.35
2022-11-17T16:51:15.755Z,54.16
2022-11-17T16:53:42.018Z,53.64
2022-11-17T16:56:08.288Z,54.00
2022-11-17T16:58:34.556Z,53.85
2022-11-17T17:01:00.828Z,54.50
2022-11-17T17:03:27.081Z,54.43
2022-11-17T17:05:53.363Z,53.61
2022-11-17T17:08:19.826Z,53.80
2022-11-17T17:10:46.093Z,53.90
2022-11-17T17:13:12.369Z,53.61
2022-11-17T17:15:38.656Z,54.18
2022-11-17T17:18:04.935Z,54.25
2022-11-17T17:20:31.199Z,55.11
2022-11-17T17:23:02.797Z,55.96
2022-11-17T17:25:29.400Z,57.59
2022-11-17T17:27:55.651Z,58.63
2022-11-17T17:30:21.900Z,59.44
2022-11-17T17:32:48.171Z,60.87
2022-11-17T17:35:14.447Z,61.58
2022-11-17T17:37:40.715Z,62.83
2022-11-17T17:40:06.978Z,64.72
2022-11-17T17:42:33.228Z,64.96
2022-11-17T17:44:59.495Z,65.49
2022-11-17T17:47:25.750Z,64.22
2022-11-17T17:49:51.996Z,64.84
2022-11-17T17:52:18.270Z,65.16
2022-11-17T17:54:44.547Z,65.23
2022-11-17T17:57:10.825Z,65.24
2022-11-17T17:59:37.084Z,65.55
2022-11-17T18:02:03.351Z,65.06
2022-11-17T18:04:29.619Z,64.83
2022-11-17T18:06:55.977Z,65.46
2022-11-17T18:09:22.305Z,65.56
2022-11-17T18:11:48.627Z,65.49
2022-11-17T18:14:14.881Z,64.34
2022-11-17T18:16:41.148Z,63.98
2022-11-17T18:19:07.426Z,64.30
2022-11-17T18:21:33.671Z,64.30
2022-11-17T18:23:59.945Z,63.32
2022-11-17T18:26:26.205Z,63.72
2022-11-17T18:28:52.466Z,63.75
2022-11-17T18:31:18.768Z,63.42
2022-11-17T18:33:45.039Z,63.35
2022-11-17T18:36:11.301Z,64.40
2022-11-17T18:38:37.548Z,65.38
2022-11-17T18:41:03.798Z,66.06
2022-11-17T18:43:30.068Z,66.77
2022-11-17T18:45:56.343Z,66.69
2022-11-17T18:48:22.588Z,66.69
2022-11-17T18:51:17.649Z,66.09
2022-11-17T18:53:35.098Z,66.15
2022-11-17T18:56:01.348Z,67.42
2022-11-17T18:58:27.612Z,67.01
2022-11-17T19:00:53.905Z,66.64
2022-11-17T19:03:20.173Z,67.89
2022-11-17T19:05:46.434Z,68.40
2022-11-17T19:08:12.695Z,67.86
2022-11-17T19:10:38.946Z,67.92
2022-11-17T19:13:05.212Z,67.69
2022-11-17T19:15:31.475Z,67.61
2022-11-17T19:17:57.748Z,68.05
2022-11-17T19:20:24.023Z,68.48
2022-11-17T19:22:50.286Z,68.31
2022-11-17T19:25:16.531Z,67.54
2022-11-17T19:27:42.808Z,67.94
2022-11-17T19:30:09.087Z,67.12
2022-11-17T19:32:35.347Z,66.76
2022-11-17T19:35:12.985Z,66.58
2022-11-17T19:37:41.030Z,66.35
2022-11-17T19:40:07.336Z,66.37
2022-11-17T19:42:33.574Z,66.19
2022-11-17T19:44:59.835Z,65.83
2022-11-17T19:47:26.080Z,65.76
2022-11-17T19:49:52.339Z,65.40
2022-11-17T19:52:18.608Z,66.47
2022-11-17T19:54:44.864Z,65.57
2022-11-17T19:57:11.126Z,64.78
2022-11-17T19:59:37.393Z,65.07
2022-11-17T20:02:03.657Z,65.08
2022-11-17T20:04:29.922Z,64.74
2022-11-17T20:06:56.194Z,64.50
2022-11-17T20:09:22.495Z,64.73
2022-11-17T20:11:48.763Z,64.14
2022-11-17T20:14:15.017Z,64.37
2022-11-17T20:16:41.295Z,64.74
2022-11-17T20:19:07.538Z,64.71
2022-11-17T20:21:33.798Z,65.36
2022-11-17T20:24:00.044Z,66.01
2022-11-17T20:26:26.290Z,65.90
2022-11-17T20:28:52.535Z,66.33
2022-11-17T20:31:18.793Z,66.47
2022-11-17T20:33:45.048Z,66.67
2022-11-17T20:36:11.304Z,66.18
2022-11-17T20:38:37.576Z,66.97
2022-11-17T20:41:03.826Z,65.40
2022-11-17T20:43:30.068Z,65.35
2022-11-17T20:45:56.331Z,64.87
2022-11-17T20:48:22.589Z,65.07
2022-11-17T20:50:48.846Z,65.74
2022-11-17T20:53:15.089Z,65.31
2022-11-17T20:55:41.360Z,64.72
2022-11-17T20:58:07.604Z,65.39
2022-11-17T21:00:33.844Z,65.78
2022-11-17T21:03:00.096Z,66.35
2022-11-17T21:05:26.337Z,66.09
2022-11-17T21:07:52.573Z,65.84
2022-11-17T21:10:18.815Z,66.65
2022-11-17T21:12:45.072Z,66.21
2022-11-17T21:15:11.334Z,66.73
2022-11-17T21:17:37.629Z,66.96
2022-11-17T21:20:03.915Z,66.54
2022-11-17T21:22:30.203Z,67.05
2022-11-17T21:24:56.471Z,66.81
2022-11-17T21:27:22.742Z,66.80
2022-11-17T21:29:49.023Z,66.32
2022-11-17T21:32:15.285Z,66.35
2022-11-17T21:34:45.675Z,65.67
2022-11-17T21:37:14.873Z,65.63
2022-11-17T21:39:41.121Z,65.64
2022-11-17T21:42:07.363Z,65.13
2022-11-17T21:44:33.608Z,65.29
2022-11-17T21:46:59.863Z,65.04
2022-11-17T21:49:26.099Z,65.82
2022-11-17T21:51:52.340Z,65.24
2022-11-17T21:54:18.600Z,64.78
2022-11-17T21:56:44.843Z,64.79
2022-11-17T21:59:11.078Z,64.91
2022-11-17T22:01:37.422Z,65.29
2022-11-17T22:04:03.709Z,65.50
2022-11-17T22:06:29.965Z,65.55
2022-11-17T22:08:56.215Z,65.77
2022-11-17T22:11:22.483Z,66.04
2022-11-17T22:13:48.752Z,66.31
2022-11-17T22:16:14.997Z,66.93
2022-11-17T22:18:41.272Z,67.09
2022-11-17T22:21:07.535Z,67.03
2022-11-17T22:23:33.836Z,67.01
2022-11-17T22:26:00.097Z,67.20
2022-11-17T22:28:26.363Z,67.45
2022-11-17T22:30:52.617Z,67.78
2022-11-17T22:33:19.053Z,67.07
2022-11-17T22:35:45.352Z,67.23
2022-11-17T22:38:11.632Z,67.57
2022-11-17T22:40:37.898Z,68.01
2022-11-17T22:43:04.746Z,68.17
2022-11-17T22:45:31.492Z,68.63
2022-11-17T22:47:57.733Z,68.49
2022-11-17T22:50:23.978Z,69.01
2022-11-17T22:52:50.246Z,68.91
2022-11-17T22:55:16.505Z,70.07
2022-11-17T22:57:42.801Z,70.92
2022-11-17T23:00:09.046Z,70.77
2022-11-17T23:02:35.376Z,70.19
2022-11-17T23:05:01.670Z,70.30
2022-11-17T23:07:27.982Z,69.20
2022-11-17T23:09:54.345Z,67.03
2022-11-17T23:12:20.712Z,66.91
2022-11-17T23:14:47.009Z,65.95
2022-11-17T23:17:13.287Z,66.25
2022-11-17T23:19:39.531Z,66.29
2022-11-17T23:22:05.800Z,66.52
2022-11-17T23:24:32.076Z,66.85
2022-11-17T23:26:58.330Z,66.92
2022-11-17T23:29:24.593Z,66.65
2022-11-17T23:31:50.854Z,65.92
2022-11-17T23:34:17.124Z,67.07
2022-11-17T23:36:43.388Z,67.12
2022-11-17T23:39:09.646Z,67.19
2022-11-17T23:41:35.968Z,66.53
2022-11-17T23:44:02.221Z,65.63
2022-11-17T23:46:28.511Z,64.98
2022-11-17T23:48:54.793Z,65.04
2022-11-17T23:51:21.029Z,65.33
2022-11-17T23:53:47.352Z,65.83
2022-11-17T23:56:13.600Z,63.82
2022-11-17T23:58:39.834Z,63.70
